Terminal Aerodrome Forecast
Issued by NWS

Home | Current Version | Previous Version | Text Only | Print | Product List | Glossary On
Versions: 1 2 3 4 5 6 7 8 9 10 11 12 13 14 15 16 17
000
FTUS41 KBOX 291733
TAFBED
TAF
KBED 291733Z 2918/3018 26011G20KT P6SM SCT050 BKN250
     FM300100 30005KT P6SM SCT200
     FM301100 36005KT P6SM SCT200
     FM301500 07005KT P6SM SCT150=

USA.gov is the U.S. government's official web portal to all federal, state and local government web resources and services.